Archival Weather

Norman Y Mineta San Jose Intl

San Jose, California (KSJC)

Report from: Sunday, January 28, 2024 8:53 PM PST
Current time: Saturday, June 22, 2024 1:48 AM PDT

Current weather – Weather history – Daily summaries
Weather forecast

Temperature16.7°C (62.1°F)
Dew point11.7°C (53.1°F)
Winds 3 kts (1.5 m/s, 3.5 mph) South-Southwest (200°)
Visibility10 mi. (16.1 km)
Clouds Scattered clouds 10,000 ft. (3,048 m)
Altimeter30.13 in.Hg (1020 mB)
Relative humidity72 %
Density altitude156 ft. (47 m)
Sea-level pressure102.0 kPa (1020 mB, 30.13 in.Hg)
Remarks Automated weather observing station with precipitation discriminator
Flight conditions Visual Meteorological Conditions
Raw dataKSJC 290453Z 20003KT 10SM SCT100 17/12 A3013 RMK AO2 SLP203 T01670117
An error has occurred. This application may no longer respond until reloaded. Reload 🗙